createdAt,value
2023-01-06T06:01:41.494Z,2.63
2023-01-06T06:04:08.488Z,1.98
2023-01-06T06:06:35.133Z,2.25
2023-01-06T06:09:05.308Z,2.47
2023-01-06T06:11:31.901Z,2.15
2023-01-06T06:13:59.748Z,2.35
2023-01-06T06:16:28.369Z,1.95
2023-01-06T06:18:58.290Z,2.10
2023-01-06T06:21:27.528Z,1.67
2023-01-06T06:23:56.604Z,1.60
2023-01-06T06:26:23.930Z,2.30
2023-01-06T06:28:51.179Z,1.98
2023-01-06T06:31:20.606Z,2.00
2023-01-06T06:36:16.378Z,3.58
2023-01-06T06:38:44.566Z,1.25
2023-01-06T06:41:11.794Z,1.35
2023-01-06T06:43:39.705Z,1.50
2023-01-06T06:46:06.907Z,1.55
2023-01-06T06:48:34.487Z,1.80
2023-01-06T06:51:07.168Z,1.85
2023-01-06T06:53:35.483Z,1.45
2023-01-06T06:56:02.987Z,1.65
2023-01-06T06:58:30.490Z,1.73
2023-01-06T07:00:57.246Z,1.35
2023-01-06T07:03:25.515Z,1.30
2023-01-06T07:05:52.740Z,1.30
2023-01-06T07:08:19.979Z,1.70
2023-01-06T07:10:46.536Z,1.55
2023-01-06T07:13:13.193Z,1.48
2023-01-06T07:15:40.384Z,1.40
2023-01-06T07:18:07.173Z,1.42
2023-01-06T07:20:36.247Z,1.30
2023-01-06T07:23:03.148Z,1.17
2023-01-06T07:25:30.498Z,1.40
2023-01-06T07:27:59.465Z,1.42
2023-01-06T07:30:27.693Z,1.30
2023-01-06T07:32:54.326Z,1.27
2023-01-06T07:35:21.376Z,1.45
2023-01-06T07:37:48.024Z,1.52
2023-01-06T07:40:15.134Z,1.17
2023-01-06T07:42:41.654Z,1.15
2023-01-06T07:45:09.395Z,1.85
2023-01-06T07:47:36.240Z,1.63
2023-01-06T07:50:04.965Z,1.00
2023-01-06T07:52:32.162Z,1.23
2023-01-06T07:54:59.829Z,1.35
2023-01-06T07:57:28.083Z,1.38
2023-01-06T07:59:56.076Z,1.60
2023-01-06T08:02:23.617Z,1.48
2023-01-06T08:04:50.718Z,1.35
2023-01-06T08:07:17.894Z,1.40
2023-01-06T08:09:45.124Z,1.38
2023-01-06T08:12:12.221Z,1.40
2023-01-06T08:14:39.494Z,1.20
2023-01-06T08:17:06.287Z,1.58
2023-01-06T08:19:33.904Z,1.70
2023-01-06T08:22:00.506Z,1.50
2023-01-06T08:24:28.324Z,1.30
2023-01-06T08:26:54.967Z,1.30
2023-01-06T08:29:22.149Z,1.40
2023-01-06T08:31:49.461Z,1.15
2023-01-06T08:34:18.110Z,1.50
2023-01-06T08:36:45.274Z,1.42
2023-01-06T08:39:13.726Z,1.30
2023-01-06T08:41:41.149Z,1.15
2023-01-06T08:44:08.144Z,1.30
2023-01-06T08:46:34.825Z,1.67
2023-01-06T08:49:02.057Z,1.40
2023-01-06T08:51:29.198Z,1.38
2023-01-06T08:53:56.552Z,1.38
2023-01-06T08:56:25.630Z,1.23
2023-01-06T08:58:59.080Z,1.42
2023-01-06T09:01:29.369Z,1.27
2023-01-06T09:03:59.011Z,1.20
2023-01-06T09:06:26.570Z,1.50
2023-01-06T09:08:53.916Z,1.08
2023-01-06T09:11:20.545Z,1.67
2023-01-06T09:13:48.206Z,1.20
2023-01-06T09:16:14.888Z,1.20
2023-01-06T09:18:47.727Z,1.20
2023-01-06T09:21:14.361Z,1.20
2023-01-06T09:23:41.581Z,1.10
2023-01-06T09:26:08.911Z,2.28
2023-01-06T09:28:36.253Z,1.35
2023-01-06T09:31:02.912Z,1.40
2023-01-06T09:33:30.072Z,1.30
2023-01-06T09:35:57.252Z,1.60
2023-01-06T09:38:23.813Z,1.60
2023-01-06T09:41:18.034Z,1.58
2023-01-06T09:44:13.070Z,1.40
2023-01-06T09:46:44.424Z,1.67
2023-01-06T09:49:20.798Z,1.20
2023-01-06T09:51:47.987Z,1.33
2023-01-06T09:54:31.661Z,1.77
2023-01-06T09:57:10.870Z,1.40
2023-01-06T09:59:45.843Z,1.58
2023-01-06T10:02:22.586Z,1.67
2023-01-06T10:04:49.786Z,1.38
2023-01-06T10:07:43.106Z,1.40
2023-01-06T10:10:32.123Z,1.95
2023-01-06T10:13:06.299Z,1.57
2023-01-06T10:15:48.971Z,2.20
2023-01-06T10:18:40.900Z,2.10
2023-01-06T10:21:22.407Z,2.10
2023-01-06T10:23:55.531Z,2.30
2023-01-06T10:26:29.729Z,2.38
2023-01-06T10:29:14.431Z,2.30
2023-01-06T10:31:45.079Z,2.05
2023-01-06T10:34:20.780Z,2.92
2023-01-06T10:37:01.181Z,2.42
2023-01-06T10:39:30.477Z,2.10
2023-01-06T10:42:57.586Z,2.50
2023-01-06T10:45:32.735Z,2.42
2023-01-06T10:48:01.889Z,2.30
2023-01-06T10:50:28.546Z,2.45
2023-01-06T10:52:55.438Z,2.22
2023-01-06T10:55:25.426Z,2.65
2023-01-06T11:00:22.984Z,2.72
2023-01-06T11:02:52.586Z,3.20
2023-01-06T11:05:23.565Z,3.15
2023-01-06T11:07:58.338Z,3.28
2023-01-06T11:10:28.688Z,2.65
2023-01-06T11:12:58.528Z,3.28
2023-01-06T11:15:38.483Z,3.28
2023-01-06T11:20:45.695Z,3.67
2023-01-06T11:23:21.069Z,4.32
2023-01-06T11:26:15.879Z,4.38
2023-01-06T11:28:47.919Z,4.60
2023-01-06T11:31:14.493Z,5.53
2023-01-06T11:33:49.392Z,5.40
2023-01-06T11:36:16.568Z,5.45
2023-01-06T11:38:47.570Z,5.78
2023-01-06T11:41:25.740Z,6.05
2023-01-06T11:43:56.923Z,5.53
2023-01-06T11:46:25.431Z,5.55
2023-01-06T11:49:03.136Z,5.67
2023-01-06T11:51:41.903Z,5.82
2023-01-06T11:54:24.697Z,6.15
2023-01-06T11:57:08.789Z,5.88
2023-01-06T11:59:56.450Z,5.60
2023-01-06T12:02:30.545Z,4.63
2023-01-06T12:05:01.509Z,5.70
2023-01-06T12:07:51.057Z,5.50
2023-01-06T12:10:32.055Z,5.38
2023-01-06T12:12:58.955Z,5.93
2023-01-06T12:15:29.509Z,5.00
2023-01-06T12:18:16.462Z,5.90
2023-01-06T12:20:48.799Z,5.35
2023-01-06T12:23:29.032Z,4.78
2023-01-06T12:26:03.836Z,6.15
2023-01-06T12:28:40.527Z,5.40
2023-01-06T12:31:17.033Z,5.97
2023-01-06T12:33:53.554Z,5.95
2023-01-06T12:36:33.546Z,6.70
2023-01-06T12:41:58.650Z,6.40
2023-01-06T12:44:47.799Z,6.82
2023-01-06T12:47:23.543Z,5.13
2023-01-06T12:50:18.212Z,6.32
2023-01-06T12:52:54.507Z,4.75
2023-01-06T12:55:47.478Z,5.53
2023-01-06T12:58:35.333Z,4.80
2023-01-06T13:01:13.654Z,4.78
2023-01-06T13:04:15.628Z,4.72
2023-01-06T13:06:53.719Z,5.20
2023-01-06T13:09:31.132Z,5.00
2023-01-06T13:12:27.122Z,4.57
2023-01-06T13:15:06.123Z,5.05
2023-01-06T13:17:55.320Z,4.63
2023-01-06T13:20:33.045Z,5.53
2023-01-06T13:23:33.465Z,5.50
2023-01-06T13:26:24.817Z,5.03
2023-01-06T13:29:14.536Z,5.28
2023-01-06T13:31:44.609Z,4.32
2023-01-06T13:34:29.815Z,5.45
2023-01-06T13:37:24.637Z,4.68
2023-01-06T13:40:29.541Z,5.35
2023-01-06T13:43:06.094Z,5.10
2023-01-06T13:45:43.244Z,5.03
2023-01-06T13:48:18.464Z,4.47
2023-01-06T13:50:45.861Z,5.07
2023-01-06T13:53:24.078Z,5.38
2023-01-06T13:56:33.119Z,5.40
2023-01-06T13:59:25.428Z,5.35
2023-01-06T14:01:52.890Z,4.57
2023-01-06T14:04:29.089Z,5.53
2023-01-06T14:06:56.000Z,5.50
2023-01-06T14:09:23.285Z,4.88
2023-01-06T14:11:51.050Z,5.20
2023-01-06T14:14:30.445Z,5.15
2023-01-06T14:19:37.873Z,5.57
2023-01-06T14:22:23.292Z,5.57
2023-01-06T14:24:56.183Z,5.78
2023-01-06T14:27:49.078Z,4.90
2023-01-06T14:30:24.338Z,5.45
2023-01-06T14:32:51.443Z,6.05
2023-01-06T14:35:22.624Z,5.35
2023-01-06T14:38:03.378Z,7.32
2023-01-06T14:40:40.486Z,6.05
2023-01-06T14:43:53.879Z,5.95
2023-01-06T14:46:26.535Z,5.80
2023-01-06T14:48:59.943Z,7.00
2023-01-06T14:51:27.063Z,6.20
2023-01-06T14:53:59.145Z,6.97
2023-01-06T14:56:29.159Z,6.65
2023-01-06T14:59:09.823Z,6.25
2023-01-06T15:01:39.325Z,6.10
2023-01-06T15:04:19.823Z,6.65
2023-01-06T15:06:56.933Z,7.80
2023-01-06T15:09:24.198Z,7.65
2023-01-06T15:11:50.943Z,6.32
2023-01-06T15:14:33.026Z,6.88
2023-01-06T15:17:06.573Z,6.45
2023-01-06T15:19:35.122Z,6.47
2023-01-06T15:22:07.483Z,6.53
2023-01-06T15:24:39.741Z,7.43
2023-01-06T15:27:08.696Z,7.20
2023-01-06T15:29:35.940Z,6.82
2023-01-06T15:32:04.526Z,7.85
2023-01-06T15:34:42.930Z,6.68
2023-01-06T15:37:18.304Z,7.03
2023-01-06T15:39:46.356Z,6.50
2023-01-06T15:42:15.101Z,6.90
2023-01-06T15:44:54.624Z,7.40
2023-01-06T15:47:38.408Z,6.95
2023-01-06T15:50:17.103Z,6.90
2023-01-06T15:52:57.329Z,6.68
2023-01-06T15:55:32.337Z,6.32
2023-01-06T15:58:04.129Z,6.50
2023-01-06T16:00:44.852Z,6.22
2023-01-06T16:03:23.248Z,7.07
2023-01-06T16:06:00.118Z,6.77
2023-01-06T16:08:30.299Z,7.45
2023-01-06T16:11:46.211Z,7.15
2023-01-06T16:14:35.815Z,7.68
2023-01-06T16:19:48.727Z,10.05
2023-01-06T16:22:49.935Z,10.38
2023-01-06T16:25:33.377Z,13.98
2023-01-06T16:28:03.255Z,14.90
2023-01-06T16:30:36.961Z,14.00
2023-01-06T16:33:04.477Z,10.52
2023-01-06T16:35:33.638Z,9.40
2023-01-06T16:38:00.689Z,11.20
2023-01-06T16:40:30.258Z,17.50
2023-01-06T16:43:00.251Z,16.33
2023-01-06T16:45:44.474Z,14.00
2023-01-06T16:48:16.507Z,11.93
2023-01-06T16:50:54.957Z,9.68
2023-01-06T16:53:22.998Z,9.30
2023-01-06T16:55:57.812Z,8.85
2023-01-06T16:58:27.508Z,8.45
2023-01-06T17:00:56.787Z,8.68
2023-01-06T17:03:28.526Z,8.60
2023-01-06T17:05:56.256Z,9.25
2023-01-06T17:08:29.815Z,9.38
2023-01-06T17:10:57.371Z,9.40
2023-01-06T17:13:36.527Z,9.15
2023-01-06T17:16:09.862Z,8.48
2023-01-06T17:18:45.906Z,9.25
2023-01-06T17:21:16.757Z,9.70
2023-01-06T17:23:55.777Z,10.25
2023-01-06T17:26:24.457Z,9.70
2023-01-06T17:28:54.113Z,10.30
2023-01-06T17:31:32.711Z,18.05
2023-01-06T17:34:10.395Z,20.27
2023-01-06T17:36:42.444Z,19.60
2023-01-06T17:39:37.198Z,16.70
2023-01-06T17:42:12.893Z,11.05
2023-01-06T17:44:45.844Z,9.93
2023-01-06T17:47:28.109Z,9.52
2023-01-06T17:49:57.717Z,7.55
2023-01-06T17:52:30.494Z,8.13
2023-01-06T17:55:20.629Z,7.43
2023-01-06T17:57:47.545Z,7.85
2023-01-06T18:00:17.051Z,7.13
2023-01-06T18:03:05.248Z,6.53
2023-01-06T18:05:35.627Z,6.75
2023-01-06T18:08:05.256Z,6.50
2023-01-06T18:10:37.868Z,6.55
2023-01-06T18:13:16.246Z,6.25
2023-01-06T18:15:48.347Z,6.87
2023-01-06T18:18:28.083Z,7.22
2023-01-06T18:21:13.945Z,6.40
2023-01-06T18:23:42.503Z,6.97
2023-01-06T18:26:27.755Z,6.32
2023-01-06T18:28:56.742Z,5.53
2023-01-06T18:31:24.399Z,5.50
2023-01-06T18:33:51.252Z,5.50
2023-01-06T18:36:18.542Z,5.68
2023-01-06T18:38:45.348Z,4.93
2023-01-06T18:41:13.668Z,5.47
2023-01-06T18:43:42.840Z,4.88
2023-01-06T18:46:18.054Z,5.53
2023-01-06T18:48:45.452Z,5.45
2023-01-06T18:51:25.210Z,6.72
2023-01-06T18:53:52.475Z,7.40
2023-01-06T18:56:22.996Z,7.82
2023-01-06T18:58:59.753Z,8.10
2023-01-06T19:01:46.879Z,8.35
2023-01-06T19:04:19.103Z,9.60
2023-01-06T19:07:15.530Z,9.02
2023-01-06T19:09:45.618Z,8.27
2023-01-06T19:12:32.762Z,7.93
2023-01-06T19:15:24.313Z,7.63
2023-01-06T19:17:51.937Z,7.40
2023-01-06T19:20:27.036Z,8.40
2023-01-06T19:22:55.236Z,9.23
2023-01-06T19:25:40.893Z,10.40
2023-01-06T19:28:26.799Z,12.23
2023-01-06T19:30:55.690Z,12.68
2023-01-06T19:33:53.230Z,10.60
2023-01-06T19:36:35.112Z,9.93
2023-01-06T19:39:15.124Z,9.48
2023-01-06T19:41:42.826Z,9.70
2023-01-06T19:44:13.662Z,9.60
2023-01-06T19:46:46.743Z,9.07
2023-01-06T19:49:16.838Z,9.48
2023-01-06T19:51:44.232Z,8.90
2023-01-06T19:54:10.768Z,8.82
2023-01-06T19:56:41.423Z,8.10
2023-01-06T19:59:25.556Z,8.20
2023-01-06T20:02:07.940Z,8.27
2023-01-06T20:04:35.060Z,8.18
2023-01-06T20:07:02.911Z,8.15
2023-01-06T20:09:33.216Z,8.88
2023-01-06T20:12:00.946Z,7.93
2023-01-06T20:14:27.673Z,8.20
2023-01-06T20:16:55.061Z,8.25
2023-01-06T20:19:21.782Z,8.25
2023-01-06T20:21:49.243Z,8.32
2023-01-06T20:24:15.879Z,8.52
2023-01-06T20:26:43.229Z,8.32
2023-01-06T20:29:09.846Z,8.10
2023-01-06T20:31:37.208Z,9.45
2023-01-06T20:34:04.332Z,9.98
2023-01-06T20:36:31.529Z,10.02
2023-01-06T20:38:58.461Z,9.57
2023-01-06T20:41:25.867Z,10.45
2023-01-06T20:43:52.435Z,10.50
2023-01-06T20:46:19.712Z,10.52
2023-01-06T20:48:47.724Z,10.60
2023-01-06T20:51:15.089Z,10.35
2023-01-06T20:53:41.679Z,10.52
2023-01-06T20:56:08.972Z,11.32
2023-01-06T20:58:35.623Z,10.25
2023-01-06T21:01:02.953Z,10.77
2023-01-06T21:03:29.534Z,10.73
2023-01-06T21:05:56.699Z,11.05
2023-01-06T21:08:23.277Z,10.07
2023-01-06T21:10:50.543Z,11.50
2023-01-06T21:13:17.112Z,10.38
2023-01-06T21:15:44.361Z,10.07
2023-01-06T21:18:10.888Z,10.63
2023-01-06T21:20:38.112Z,10.23
2023-01-06T21:23:04.723Z,12.68
2023-01-06T21:25:31.921Z,10.90
2023-01-06T21:27:58.884Z,10.75
